Time;durP1;ratioP1;P1;durP2;ratioP2;P2;SDS_P1;SDS_P2;PMS_P1;PMS_P2;Temp;Humidity;BMP_temperature;BMP_pressure;BME280_temperature;BME280_humidity;BME280_pressure;Samples;Min_cycle;Max_cycle;Signal;HPM_P1;HPM_P2
2021/08/26 00:00:05;;;;;;;14.60;11.80;;;;;;;;;;5074301;28;20517;-76
2021/08/26 00:08:03;;;;;;;12.95;11.60;;;;;;;;;;5059084;28;20036;-76
2021/08/26 00:10:30;;;;;;;13.25;11.85;;;;;;;;;;5074174;28;20465;-76
2021/08/26 00:12:56;;;;;;;13.75;11.63;;;;;;;;;;5073864;28;20028;-76
2021/08/26 00:15:22;;;;;;;17.08;12.45;;;;;;;;;;5074087;28;20107;-76
2021/08/26 00:17:48;;;;;;;14.95;12.02;;;;;;;;;;5073984;28;20359;-76
2021/08/26 00:20:14;;;;;;;13.35;11.15;;;;;;;;;;5065782;28;20079;-75
2021/08/26 00:22:40;;;;;;;14.10;11.88;;;;;;;;;;5073804;28;20055;-76
2021/08/26 00:25:07;;;;;;;14.40;12.13;;;;;;;;;;5074389;28;20025;-76
2021/08/26 00:27:33;;;;;;;20.55;12.43;;;;;;;;;;5073747;28;20078;-77
2021/08/26 00:29:59;;;;;;;13.25;11.55;;;;;;;;;;5073941;28;20064;-76
2021/08/26 00:32:25;;;;;;;16.60;12.02;;;;;;;;;;5074086;28;20031;-76
2021/08/26 00:34:52;;;;;;;16.33;11.57;;;;;;;;;;5073765;28;20030;-76
2021/08/26 00:37:18;;;;;;;14.25;12.10;;;;;;;;;;5073606;28;20059;-77
2021/08/26 00:39:44;;;;;;;13.80;12.18;;;;;;;;;;5073810;28;20462;-76
2021/08/26 00:42:10;;;;;;;16.80;11.70;;;;;;;;;;5077662;28;20036;-76
2021/08/26 00:44:37;;;;;;;13.48;11.32;;;;;;;;;;5077641;28;20060;-76
2021/08/26 00:47:04;;;;;;;15.35;11.98;;;;;;;;;;5077984;28;20086;-76
2021/08/26 00:49:30;;;;;;;12.77;11.43;;;;;;;;;;5077233;28;20033;-76
2021/08/26 00:51:56;;;;;;;16.02;12.02;;;;;;;;;;5077804;28;20038;-77
2021/08/26 00:54:22;;;;;;;14.68;10.68;;;;;;;;;;5077777;28;20060;-76
2021/08/26 00:56:48;;;;;;;14.27;11.02;;;;;;;;;;5077591;28;20045;-76
2021/08/26 00:59:14;;;;;;;12.80;10.82;;;;;;;;;;5077410;28;20104;-76
2021/08/26 01:01:43;;;;;;;12.93;11.55;;;;;;;;;;5077160;28;20032;-76
2021/08/26 01:04:29;;;;;;;13.65;11.05;;;;;;;;;;5077542;28;20036;-77
2021/08/26 01:06:57;;;;;;;13.00;11.55;;;;;;;;;;5062809;28;20421;-76
2021/08/26 01:09:25;;;;;;;13.95;10.40;;;;;;;;;;5077180;28;20028;-77
2021/08/26 01:11:51;;;;;;;12.57;11.27;;;;;;;;;;5077186;28;20462;-76
2021/08/26 01:14:18;;;;;;;12.43;10.68;;;;;;;;;;5077203;28;20028;-76
2021/08/26 01:16:44;;;;;;;13.40;12.02;;;;;;;;;;5076912;28;20025;-77
2021/08/26 01:19:11;;;;;;;16.38;11.48;;;;;;;;;;5076585;28;20032;-76
2021/08/26 01:21:37;;;;;;;14.27;11.85;;;;;;;;;;5076784;28;20032;-76
2021/08/26 01:24:05;;;;;;;13.68;12.35;;;;;;;;;;5076951;28;20481;-76
2021/08/26 01:26:31;;;;;;;14.52;12.68;;;;;;;;;;5077112;28;20096;-76
2021/08/26 01:28:58;;;;;;;13.60;11.52;;;;;;;;;;5077248;28;20025;-76
2021/08/26 01:31:24;;;;;;;12.48;11.15;;;;;;;;;;5076539;28;20029;-78
2021/08/26 01:33:51;;;;;;;12.32;11.02;;;;;;;;;;5077167;28;20111;-76
2021/08/26 01:36:18;;;;;;;13.32;11.02;;;;;;;;;;5077249;28;20020;-77
2021/08/26 01:38:44;;;;;;;13.45;11.35;;;;;;;;;;5076863;28;20028;-76
2021/08/26 01:41:11;;;;;;;11.65;10.55;;;;;;;;;;5076476;28;20060;-77
2021/08/26 01:43:37;;;;;;;12.38;11.15;;;;;;;;;;5076468;28;20029;-76
2021/08/26 01:46:03;;;;;;;12.70;11.45;;;;;;;;;;5076361;28;20351;-77
2021/08/26 01:48:29;;;;;;;13.02;11.32;;;;;;;;;;5076224;28;20017;-76
2021/08/26 01:50:55;;;;;;;13.73;10.25;;;;;;;;;;5076316;28;20546;-76
2021/08/26 01:53:21;;;;;;;13.32;11.57;;;;;;;;;;5075498;28;20107;-76
2021/08/26 01:55:47;;;;;;;13.70;11.90;;;;;;;;;;5076091;28;20472;-77
2021/08/26 01:58:14;;;;;;;14.90;12.25;;;;;;;;;;5076710;28;20099;-76
2021/08/26 02:00:40;;;;;;;12.60;10.55;;;;;;;;;;5076399;28;20021;-77
2021/08/26 02:03:06;;;;;;;12.60;11.27;;;;;;;;;;5076487;28;20079;-77
2021/08/26 02:05:32;;;;;;;13.48;12.02;;;;;;;;;;5076019;28;20032;-77
2021/08/26 02:07:58;;;;;;;12.10;10.93;;;;;;;;;;5076305;28;20549;-76
2021/08/26 02:10:24;;;;;;;11.80;10.23;;;;;;;;;;5076353;28;20027;-76
2021/08/26 02:12:50;;;;;;;11.82;10.63;;;;;;;;;;5075915;28;20033;-76
2021/08/26 02:15:17;;;;;;;15.45;11.10;;;;;;;;;;5075573;28;20060;-78
2021/08/26 02:17:43;;;;;;;16.17;11.13;;;;;;;;;;5075987;28;20020;-76
2021/08/26 02:20:09;;;;;;;12.30;11.10;;;;;;;;;;5076109;28;20029;-76
2021/08/26 02:22:35;;;;;;;12.27;11.10;;;;;;;;;;5076186;28;20036;-76
2021/08/26 02:25:01;;;;;;;13.10;11.75;;;;;;;;;;5075778;28;20492;-76
2021/08/26 02:27:27;;;;;;;11.65;10.35;;;;;;;;;;5075579;28;20381;-76
2021/08/26 02:29:53;;;;;;;13.05;11.75;;;;;;;;;;5075509;28;20031;-78
2021/08/26 02:32:19;;;;;;;12.88;11.60;;;;;;;;;;5075358;28;20103;-76
2021/08/26 02:34:45;;;;;;;12.88;11.05;;;;;;;;;;5075903;28;20035;-76
2021/08/26 02:37:11;;;;;;;14.05;12.68;;;;;;;;;;5075860;28;20107;-76
2021/08/26 02:39:37;;;;;;;16.08;10.90;;;;;;;;;;5075289;28;20047;-76
2021/08/26 02:42:04;;;;;;;12.93;11.35;;;;;;;;;;5075096;28;20033;-76
2021/08/26 02:44:30;;;;;;;13.13;11.57;;;;;;;;;;5075470;28;20035;-76
2021/08/26 02:46:56;;;;;;;15.88;12.65;;;;;;;;;;5075152;28;20025;-76
2021/08/26 02:49:22;;;;;;;11.45;10.35;;;;;;;;;;5075235;28;20017;-76
2021/08/26 02:51:48;;;;;;;13.27;10.63;;;;;;;;;;5075463;28;20044;-76
2021/08/26 02:54:14;;;;;;;13.50;12.07;;;;;;;;;;5075325;28;20032;-76
2021/08/26 02:56:40;;;;;;;16.85;12.20;;;;;;;;;;5075189;28;20399;-76
2021/08/26 02:59:06;;;;;;;13.35;11.27;;;;;;;;;;5075205;28;20028;-77
2021/08/26 03:01:32;;;;;;;12.05;10.85;;;;;;;;;;5074729;28;20032;-76
2021/08/26 03:03:58;;;;;;;13.70;11.60;;;;;;;;;;5075367;28;20420;-76
2021/08/26 03:06:24;;;;;;;11.73;10.52;;;;;;;;;;5074819;28;20386;-76
2021/08/26 03:08:50;;;;;;;12.23;11.02;;;;;;;;;;5075160;28;20031;-76
2021/08/26 03:11:17;;;;;;;12.40;11.25;;;;;;;;;;5074585;28;20052;-77
2021/08/26 03:13:43;;;;;;;12.85;11.63;;;;;;;;;;5075128;28;20029;-76
2021/08/26 03:16:09;;;;;;;11.95;10.75;;;;;;;;;;5074821;28;20028;-77
2021/08/26 03:18:35;;;;;;;14.38;12.00;;;;;;;;;;5075376;28;20020;-77
2021/08/26 03:21:01;;;;;;;15.98;12.18;;;;;;;;;;5074633;28;20025;-76
2021/08/26 03:23:27;;;;;;;14.18;11.50;;;;;;;;;;5074611;28;20097;-76
2021/08/26 03:25:53;;;;;;;13.75;11.40;;;;;;;;;;5074525;28;20103;-76
2021/08/26 03:28:20;;;;;;;12.02;9.80;;;;;;;;;;5074549;28;20024;-76
2021/08/26 03:30:46;;;;;;;13.40;11.98;;;;;;;;;;5074360;28;20025;-77
2021/08/26 03:33:13;;;;;;;11.57;10.30;;;;;;;;;;5074597;28;20023;-76
2021/08/26 03:35:39;;;;;;;14.57;11.93;;;;;;;;;;5074348;28;20024;-76
2021/08/26 03:38:05;;;;;;;13.18;10.25;;;;;;;;;;5074530;28;20150;-76
2021/08/26 03:40:31;;;;;;;14.45;10.55;;;;;;;;;;5074275;28;20020;-76
2021/08/26 03:42:57;;;;;;;12.35;11.07;;;;;;;;;;5074263;28;20474;-76
2021/08/26 03:45:23;;;;;;;14.20;10.82;;;;;;;;;;5073871;28;20485;-76
2021/08/26 03:47:49;;;;;;;12.32;11.13;;;;;;;;;;5074404;28;20114;-76
2021/08/26 03:50:15;;;;;;;11.77;10.52;;;;;;;;;;5074409;28;20020;-76
2021/08/26 03:52:41;;;;;;;12.18;10.95;;;;;;;;;;5074412;28;20029;-76
2021/08/26 03:55:07;;;;;;;10.60;9.60;;;;;;;;;;5074406;28;20033;-76
2021/08/26 03:57:33;;;;;;;11.43;9.98;;;;;;;;;;5074365;28;20048;-76
2021/08/26 03:59:59;;;;;;;13.38;10.77;;;;;;;;;;5074160;28;20563;-76
2021/08/26 04:02:26;;;;;;;11.82;10.63;;;;;;;;;;5074588;28;20036;-76
2021/08/26 04:04:52;;;;;;;11.85;10.55;;;;;;;;;;5074268;28;20020;-76
2021/08/26 04:07:18;;;;;;;11.80;9.73;;;;;;;;;;5074076;28;20450;-76
2021/08/26 04:09:45;;;;;;;13.38;10.90;;;;;;;;;;5074225;28;20116;-76
2021/08/26 04:12:11;;;;;;;12.98;10.05;;;;;;;;;;5074265;28;20028;-76
2021/08/26 04:14:37;;;;;;;15.70;12.13;;;;;;;;;;5073714;28;20458;-76
2021/08/26 04:17:03;;;;;;;14.77;11.48;;;;;;;;;;5073926;28;20021;-77
2021/08/26 04:19:29;;;;;;;11.02;9.88;;;;;;;;;;5073626;28;20359;-78
2021/08/26 04:21:55;;;;;;;11.77;10.50;;;;;;;;;;5073942;28;20033;-77
2021/08/26 04:24:21;;;;;;;11.13;10.10;;;;;;;;;;5074189;28;20033;-77
2021/08/26 04:26:47;;;;;;;11.23;10.13;;;;;;;;;;5074082;28;20115;-77
2021/08/26 04:29:14;;;;;;;12.18;11.05;;;;;;;;;;5073451;28;20032;-78
2021/08/26 04:31:40;;;;;;;11.68;10.48;;;;;;;;;;5074087;28;20036;-78
2021/08/26 04:34:06;;;;;;;12.52;10.40;;;;;;;;;;5074092;28;20035;-77
2021/08/26 04:36:32;;;;;;;11.73;10.60;;;;;;;;;;5073979;28;20424;-77
2021/08/26 04:38:58;;;;;;;11.30;10.18;;;;;;;;;;5073922;28;20038;-77
2021/08/26 04:41:24;;;;;;;12.05;10.30;;;;;;;;;;5073577;28;20024;-77
2021/08/26 04:43:51;;;;;;;12.20;10.23;;;;;;;;;;5073867;28;20029;-80
2021/08/26 04:46:17;;;;;;;17.67;10.68;;;;;;;;;;5073920;28;20036;-78
2021/08/26 04:48:43;;;;;;;11.52;10.35;;;;;;;;;;5073754;28;20020;-78
2021/08/26 04:51:09;;;;;;;11.02;9.75;;;;;;;;;;5073989;28;20056;-78
2021/08/26 04:53:35;;;;;;;10.20;9.20;;;;;;;;;;5073229;28;20032;-78
2021/08/26 04:56:01;;;;;;;15.55;10.05;;;;;;;;;;5073862;28;20044;-78
2021/08/26 04:58:27;;;;;;;13.00;10.32;;;;;;;;;;5073811;28;20025;-79
2021/08/26 05:00:53;;;;;;;11.27;10.00;;;;;;;;;;5073703;28;20486;-78
2021/08/26 05:03:19;;;;;;;12.15;10.55;;;;;;;;;;5073519;28;20100;-78
2021/08/26 05:05:45;;;;;;;10.82;9.73;;;;;;;;;;5073560;28;20047;-78
2021/08/26 05:08:11;;;;;;;10.60;9.60;;;;;;;;;;5073485;28;20096;-78
2021/08/26 05:10:38;;;;;;;11.05;9.73;;;;;;;;;;5073337;28;20032;-78
2021/08/26 05:13:06;;;;;;;15.50;9.70;;;;;;;;;;5072574;28;20448;-75
2021/08/26 05:15:32;;;;;;;10.23;9.23;;;;;;;;;;5093468;28;20024;-76
2021/08/26 05:17:58;;;;;;;12.52;10.52;;;;;;;;;;5093599;28;20064;-77
2021/08/26 05:20:24;;;;;;;11.27;10.18;;;;;;;;;;5093946;28;20141;-82
2021/08/26 05:22:50;;;;;;;9.95;8.95;;;;;;;;;;5093873;28;20040;-77
2021/08/26 05:25:17;;;;;;;11.00;9.93;;;;;;;;;;5093637;28;20032;-81
2021/08/26 05:27:43;;;;;;;10.85;9.75;;;;;;;;;;5094109;28;20024;-80
2021/08/26 05:30:09;;;;;;;10.23;8.65;;;;;;;;;;5097617;28;20118;-76
2021/08/26 05:32:35;;;;;;;13.00;9.32;;;;;;;;;;5097327;28;20028;-79
2021/08/26 05:35:01;;;;;;;11.48;9.55;;;;;;;;;;5097041;28;20473;-79
2021/08/26 05:37:27;;;;;;;12.13;9.27;;;;;;;;;;5096160;28;20024;-77
2021/08/26 05:39:53;;;;;;;9.00;8.10;;;;;;;;;;5097257;28;20115;-74
2021/08/26 05:42:20;;;;;;;9.88;8.75;;;;;;;;;;5097510;28;20522;-76
2021/08/26 05:44:46;;;;;;;10.45;8.50;;;;;;;;;;5097323;28;20055;-74
2021/08/26 05:47:12;;;;;;;10.60;9.50;;;;;;;;;;5095825;28;20024;-76
2021/08/26 05:49:38;;;;;;;10.90;9.75;;;;;;;;;;5097025;28;20073;-76
2021/08/26 05:52:04;;;;;;;9.50;8.52;;;;;;;;;;5097881;28;20024;-74
2021/08/26 05:54:30;;;;;;;9.82;8.93;;;;;;;;;;5097239;28;20055;-77
2021/08/26 05:56:58;;;;;;;9.63;8.65;;;;;;;;;;5106001;28;20093;-76
2021/08/26 05:59:25;;;;;;;23.73;10.38;;;;;;;;;;5096059;28;20415;-76
2021/08/26 06:01:51;;;;;;;18.67;9.73;;;;;;;;;;5096554;28;20044;-76
2021/08/26 06:04:17;;;;;;;26.48;9.75;;;;;;;;;;5096404;28;20469;-76
2021/08/26 06:06:43;;;;;;;14.38;9.18;;;;;;;;;;5096292;28;20373;-76
2021/08/26 06:09:09;;;;;;;19.83;9.55;;;;;;;;;;5096174;28;20024;-76
2021/08/26 06:11:35;;;;;;;25.25;11.35;;;;;;;;;;5095945;28;20384;-77
2021/08/26 06:14:01;;;;;;;20.05;10.02;;;;;;;;;;5096325;28;20046;-77
2021/08/26 06:16:27;;;;;;;32.63;10.32;;;;;;;;;;5096314;28;20027;-76
2021/08/26 06:18:53;;;;;;;13.32;10.20;;;;;;;;;;5096590;28;20035;-75
2021/08/26 06:21:19;;;;;;;11.77;10.13;;;;;;;;;;5095737;28;20020;-76
2021/08/26 06:23:45;;;;;;;18.90;10.07;;;;;;;;;;5096493;28;20453;-76
2021/08/26 06:26:11;;;;;;;16.45;9.80;;;;;;;;;;5095848;28;20017;-75
2021/08/26 06:28:37;;;;;;;17.08;11.75;;;;;;;;;;5096283;28;20020;-75
2021/08/26 06:31:03;;;;;;;15.07;10.75;;;;;;;;;;5096090;28;20141;-76
2021/08/26 06:33:30;;;;;;;20.45;9.15;;;;;;;;;;5095834;28;20491;-76
2021/08/26 06:35:56;;;;;;;34.50;10.80;;;;;;;;;;5093556;28;20428;-78
2021/08/26 06:38:22;;;;;;;40.58;11.15;;;;;;;;;;5097468;28;20026;-76
2021/08/26 06:40:48;;;;;;;15.52;9.30;;;;;;;;;;5096144;28;20046;-76
2021/08/26 06:43:14;;;;;;;14.52;9.27;;;;;;;;;;5097343;28;20035;-74
2021/08/26 06:45:40;;;;;;;36.78;11.95;;;;;;;;;;5095334;28;20035;-75
2021/08/26 06:48:06;;;;;;;17.27;9.95;;;;;;;;;;5093807;28;20016;-75
2021/08/26 06:50:32;;;;;;;17.98;10.63;;;;;;;;;;5095694;28;20024;-74
2021/08/26 06:52:58;;;;;;;24.90;10.38;;;;;;;;;;5095190;28;20466;-76
2021/08/26 06:55:24;;;;;;;36.55;11.15;;;;;;;;;;5093522;28;20480;-76
2021/08/26 06:57:50;;;;;;;22.90;10.25;;;;;;;;;;5095312;28;20031;-76
2021/08/26 07:00:16;;;;;;;23.83;11.23;;;;;;;;;;5094822;28;20110;-78
2021/08/26 07:02:43;;;;;;;22.52;10.80;;;;;;;;;;5095383;28;20036;-74
2021/08/26 07:05:09;;;;;;;23.88;10.95;;;;;;;;;;5095042;28;20804;-77
2021/08/26 07:07:35;;;;;;;15.95;10.13;;;;;;;;;;5095025;28;20175;-75
2021/08/26 07:10:01;;;;;;;22.75;10.70;;;;;;;;;;5094594;28;20028;-80
2021/08/26 07:12:30;;;;;;;17.05;9.50;;;;;;;;;;5093815;28;20016;-77
2021/08/26 07:14:57;;;;;;;20.17;10.52;;;;;;;;;;5094638;28;20051;-79
2021/08/26 07:17:23;;;;;;;20.80;13.65;;;;;;;;;;5094605;28;20024;-77
2021/08/26 07:19:49;;;;;;;20.45;13.98;;;;;;;;;;5094893;28;20023;-77
2021/08/26 07:22:15;;;;;;;27.70;13.32;;;;;;;;;;5094607;28;20070;-78
2021/08/26 07:24:41;;;;;;;21.45;14.43;;;;;;;;;;5094917;28;20028;-75
2021/08/26 07:27:07;;;;;;;33.17;15.68;;;;;;;;;;5094371;28;20016;-78
2021/08/26 07:29:33;;;;;;;32.75;13.98;;;;;;;;;;5094321;28;20031;-78
2021/08/26 07:31:59;;;;;;;41.20;12.38;;;;;;;;;;5094803;28;20030;-78
2021/08/26 07:34:25;;;;;;;22.17;14.80;;;;;;;;;;5094890;28;20085;-77
2021/08/26 07:36:52;;;;;;;18.90;12.93;;;;;;;;;;5094750;28;20036;-78
2021/08/26 07:39:18;;;;;;;22.73;14.27;;;;;;;;;;5093860;28;20050;-78
2021/08/26 07:41:44;;;;;;;15.70;11.82;;;;;;;;;;5093679;28;20043;-79
2021/08/26 07:44:10;;;;;;;27.13;14.57;;;;;;;;;;5094589;28;20032;-78
2021/08/26 07:46:36;;;;;;;25.42;14.82;;;;;;;;;;5094473;28;20047;-77
2021/08/26 07:49:02;;;;;;;23.27;10.98;;;;;;;;;;5094146;28;20047;-75
2021/08/26 07:51:28;;;;;;;15.93;12.43;;;;;;;;;;5093122;28;20469;-81
2021/08/26 07:53:54;;;;;;;28.15;12.73;;;;;;;;;;5094396;28;20457;-75
2021/08/26 07:56:20;;;;;;;35.97;13.18;;;;;;;;;;5084199;28;20087;-74
2021/08/26 07:58:46;;;;;;;23.13;13.55;;;;;;;;;;5073722;28;20029;-78
2021/08/26 08:01:13;;;;;;;31.20;13.48;;;;;;;;;;5074127;28;20025;-76
2021/08/26 08:03:39;;;;;;;37.58;14.05;;;;;;;;;;5073484;28;20033;-72
2021/08/26 08:06:05;;;;;;;29.88;11.18;;;;;;;;;;5073226;28;20025;-75
2021/08/26 08:08:32;;;;;;;26.83;12.32;;;;;;;;;;5073610;28;20078;-76
2021/08/26 08:10:58;;;;;;;23.70;12.80;;;;;;;;;;5073395;28;20060;-76
2021/08/26 08:13:25;;;;;;;46.47;13.10;;;;;;;;;;5073745;28;20083;-74
2021/08/26 08:15:51;;;;;;;32.15;12.68;;;;;;;;;;5073067;28;20541;-79
2021/08/26 08:18:17;;;;;;;33.35;12.18;;;;;;;;;;5073387;28;20020;-80
2021/08/26 08:20:43;;;;;;;21.48;11.68;;;;;;;;;;5073812;28;20119;-79
2021/08/26 08:23:09;;;;;;;24.10;11.98;;;;;;;;;;5073772;28;20040;-78
2021/08/26 08:25:35;;;;;;;30.63;11.02;;;;;;;;;;5072749;28;20029;-75
2021/08/26 08:28:01;;;;;;;18.00;11.68;;;;;;;;;;5073439;28;20425;-77
2021/08/26 08:30:27;;;;;;;26.67;12.32;;;;;;;;;;5073480;28;20020;-76
2021/08/26 08:32:54;;;;;;;16.95;11.48;;;;;;;;;;5072985;28;20057;-75
2021/08/26 08:35:21;;;;;;;16.25;11.10;;;;;;;;;;5072965;28;20032;-78
2021/08/26 08:37:47;;;;;;;19.10;10.27;;;;;;;;;;5073280;28;20421;-82
2021/08/26 08:40:13;;;;;;;18.85;10.27;;;;;;;;;;5073413;28;20025;-78
2021/08/26 08:42:39;;;;;;;30.75;12.48;;;;;;;;;;5073191;28;20033;-77
2021/08/26 08:45:05;;;;;;;49.65;13.55;;;;;;;;;;5073924;28;20086;-78
2021/08/26 08:47:32;;;;;;;24.13;12.13;;;;;;;;;;5072877;28;20051;-78
2021/08/26 08:49:58;;;;;;;16.75;10.25;;;;;;;;;;5073303;28;20440;-78
2021/08/26 08:52:25;;;;;;;20.73;10.35;;;;;;;;;;5073323;28;20040;-77
2021/08/26 08:54:52;;;;;;;28.42;12.18;;;;;;;;;;5072757;28;20131;-76
2021/08/26 08:57:19;;;;;;;42.90;11.07;;;;;;;;;;5090845;28;20048;-78
2021/08/26 08:59:45;;;;;;;31.25;12.95;;;;;;;;;;5093239;28;20466;-78
2021/08/26 09:02:11;;;;;;;28.25;11.90;;;;;;;;;;5095730;28;20032;-78
2021/08/26 09:04:57;;;;;;;45.10;12.15;;;;;;;;;;5096872;28;20500;-78
2021/08/26 09:07:25;;;;;;;22.23;10.23;;;;;;;;;;5082231;28;20024;-78
2021/08/26 09:09:52;;;;;;;24.70;12.05;;;;;;;;;;5096984;28;20024;-78
2021/08/26 09:12:18;;;;;;;41.70;12.05;;;;;;;;;;5097312;28;20016;-79
2021/08/26 09:14:44;;;;;;;37.95;12.80;;;;;;;;;;5097293;28;20027;-78
2021/08/26 09:17:18;;;;;;;52.92;18.38;;;;;;;;;;5097110;28;20090;-82
2021/08/26 09:19:45;;;;;;;79.45;21.35;;;;;;;;;;5096763;28;20024;-76
2021/08/26 09:22:11;;;;;;;55.75;20.30;;;;;;;;;;5096789;28;20044;-78
2021/08/26 09:24:45;;;;;;;65.20;19.17;;;;;;;;;;5097582;28;20407;-79
2021/08/26 09:27:11;;;;;;;46.67;18.08;;;;;;;;;;5097137;28;20358;-79
2021/08/26 09:29:57;;;;;;;43.65;16.52;;;;;;;;;;5096154;28;20074;-78
2021/08/26 09:32:24;;;;;;;40.38;13.93;;;;;;;;;;5080954;28;20020;-76
2021/08/26 09:34:50;;;;;;;32.00;14.63;;;;;;;;;;5096394;28;20354;-79
2021/08/26 09:37:16;;;;;;;34.60;15.85;;;;;;;;;;5096416;28;20031;-80
2021/08/26 09:39:42;;;;;;;37.40;15.45;;;;;;;;;;5096671;28;20059;-83
2021/08/26 09:42:08;;;;;;;28.10;15.40;;;;;;;;;;5096348;28;20032;-78
2021/08/26 09:44:35;;;;;;;39.03;16.88;;;;;;;;;;5096499;28;20107;-79
2021/08/26 09:47:03;;;;;;;27.67;15.00;;;;;;;;;;5096180;28;20024;-78
2021/08/26 09:49:29;;;;;;;42.13;15.55;;;;;;;;;;5096250;28;20031;-78
2021/08/26 09:52:07;;;;;;;35.28;18.63;;;;;;;;;;5097159;28;20031;-79
2021/08/26 09:54:50;;;;;;;43.22;26.77;;;;;;;;;;5096758;28;20035;-78
2021/08/26 09:57:33;;;;;;;43.67;34.08;;;;;;;;;;5095600;28;20094;-79
2021/08/26 10:00:00;;;;;;;40.05;34.17;;;;;;;;;;5097246;28;20366;-78
2021/08/26 10:02:27;;;;;;;49.60;34.63;;;;;;;;;;5096651;28;20064;-78
2021/08/26 10:04:53;;;;;;;37.03;33.03;;;;;;;;;;5096007;28;20028;-79
2021/08/26 10:07:19;;;;;;;36.80;29.80;;;;;;;;;;5096369;28;20031;-79
2021/08/26 10:09:45;;;;;;;54.53;27.25;;;;;;;;;;5096045;28;20099;-77
2021/08/26 10:12:12;;;;;;;37.50;21.75;;;;;;;;;;5095044;28;20078;-75
2021/08/26 10:14:40;;;;;;;40.55;21.02;;;;;;;;;;5094949;28;20026;-77
2021/08/26 10:17:06;;;;;;;31.73;21.05;;;;;;;;;;5094698;28;20020;-73
2021/08/26 10:19:32;;;;;;;35.85;22.25;;;;;;;;;;5093839;28;20024;-73
2021/08/26 10:21:58;;;;;;;33.40;21.38;;;;;;;;;;5094307;28;20127;-75
2021/08/26 10:24:24;;;;;;;41.78;23.98;;;;;;;;;;5095055;28;20103;-77
2021/08/26 10:26:54;;;;;;;36.33;21.38;;;;;;;;;;5083084;28;20080;-73
2021/08/26 10:29:21;;;;;;;28.35;18.48;;;;;;;;;;5074733;28;20029;-74
2021/08/26 10:32:03;;;;;;;40.28;18.67;;;;;;;;;;5074302;28;20059;-73
2021/08/26 10:34:31;;;;;;;24.20;16.20;;;;;;;;;;5073084;28;20024;-75
2021/08/26 10:37:17;;;;;;;24.65;14.85;;;;;;;;;;5071397;28;20090;-76
2021/08/26 10:39:43;;;;;;;34.55;15.65;;;;;;;;;;5067724;28;20024;-77
2021/08/26 10:42:32;;;;;;;28.80;15.48;;;;;;;;;;5075699;28;20036;-76
2021/08/26 10:44:59;;;;;;;24.95;14.32;;;;;;;;;;5074649;28;20055;-81
2021/08/26 10:47:28;;;;;;;17.25;12.88;;;;;;;;;;5074187;28;20032;-78
2021/08/26 10:50:14;;;;;;;19.80;12.18;;;;;;;;;;5074941;28;20036;-77
2021/08/26 10:53:00;;;;;;;16.92;13.25;;;;;;;;;;5060761;28;20020;-77
2021/08/26 10:55:28;;;;;;;24.48;12.93;;;;;;;;;;5074255;28;20107;-77
2021/08/26 10:57:54;;;;;;;15.48;11.82;;;;;;;;;;5074305;28;20082;-77
2021/08/26 11:00:40;;;;;;;16.67;13.20;;;;;;;;;;5076189;28;20052;-79
2021/08/26 11:03:07;;;;;;;15.95;11.88;;;;;;;;;;5060457;28;20071;-79
2021/08/26 11:05:34;;;;;;;19.20;11.88;;;;;;;;;;5075168;28;20029;-81
2021/08/26 11:08:00;;;;;;;18.40;12.68;;;;;;;;;;5073852;28;20111;-76
2021/08/26 11:10:27;;;;;;;26.20;13.18;;;;;;;;;;5074603;28;20458;-75
2021/08/26 11:12:53;;;;;;;13.43;12.05;;;;;;;;;;5074158;28;20119;-72
2021/08/26 11:15:26;;;;;;;19.73;12.25;;;;;;;;;;5074513;28;20025;-76
2021/08/26 11:17:52;;;;;;;19.55;12.98;;;;;;;;;;5073346;28;20107;-75
2021/08/26 11:20:26;;;;;;;19.40;11.88;;;;;;;;;;5073862;28;20028;-74
2021/08/26 11:23:08;;;;;;;23.58;13.43;;;;;;;;;;5073915;28;20028;-76
2021/08/26 11:25:34;;;;;;;16.23;13.40;;;;;;;;;;5072973;28;20032;-76
2021/08/26 11:28:20;;;;;;;17.73;11.93;;;;;;;;;;5072649;28;20027;-76
2021/08/26 11:30:46;;;;;;;14.32;11.07;;;;;;;;;;5059148;28;20059;-76
2021/08/26 11:33:27;;;;;;;15.10;10.68;;;;;;;;;;5073198;28;20016;-74
2021/08/26 11:35:53;;;;;;;14.60;11.48;;;;;;;;;;5074179;28;20057;-76
2021/08/26 11:38:19;;;;;;;15.07;9.50;;;;;;;;;;5072602;28;20052;-78
2021/08/26 11:40:45;;;;;;;15.57;9.95;;;;;;;;;;5073886;28;20021;-78
2021/08/26 11:43:13;;;;;;;23.13;12.95;;;;;;;;;;5073660;28;20493;-75
2021/08/26 11:45:40;;;;;;;17.75;11.02;;;;;;;;;;5073097;28;20020;-74
2021/08/26 11:48:08;;;;;;;16.92;11.27;;;;;;;;;;5073657;28;20107;-75
2021/08/26 11:50:36;;;;;;;33.80;10.13;;;;;;;;;;5069899;28;20027;-75
2021/08/26 11:53:03;;;;;;;14.77;9.60;;;;;;;;;;5074059;28;20032;-77
2021/08/26 11:55:31;;;;;;;18.27;10.20;;;;;;;;;;5075501;28;20035;-76
2021/08/26 11:57:57;;;;;;;16.83;10.55;;;;;;;;;;5093942;28;20022;-75
2021/08/26 12:00:24;;;;;;;16.67;10.30;;;;;;;;;;5094271;28;20035;-75
2021/08/26 12:02:50;;;;;;;13.63;9.93;;;;;;;;;;5093402;28;20535;-76
2021/08/26 12:05:16;;;;;;;22.98;9.60;;;;;;;;;;5080868;28;20066;-75
2021/08/26 12:07:43;;;;;;;16.40;9.48;;;;;;;;;;5073004;28;20031;-75
2021/08/26 12:10:12;;;;;;;15.50;10.07;;;;;;;;;;5073438;28;20035;-75
2021/08/26 12:12:38;;;;;;;11.88;9.02;;;;;;;;;;5073400;28;20094;-77
2021/08/26 12:15:05;;;;;;;11.63;9.40;;;;;;;;;;5073686;28;20385;-77
2021/08/26 12:17:33;;;;;;;10.68;9.07;;;;;;;;;;5072547;28;20347;-75
2021/08/26 12:19:59;;;;;;;23.42;8.77;;;;;;;;;;5073551;28;20032;-75
2021/08/26 12:22:25;;;;;;;14.38;7.90;;;;;;;;;;5073334;28;20098;-75
2021/08/26 12:24:55;;;;;;;11.60;8.40;;;;;;;;;;5073882;28;20560;-75
2021/08/26 12:27:21;;;;;;;12.10;7.57;;;;;;;;;;5072144;28;20025;-77
2021/08/26 12:29:47;;;;;;;10.07;7.85;;;;;;;;;;5073820;28;20029;-75
2021/08/26 12:32:33;;;;;;;12.98;8.18;;;;;;;;;;5073554;28;20031;-76
2021/08/26 12:35:20;;;;;;;13.10;8.52;;;;;;;;;;5058993;28;20135;-76
2021/08/26 12:38:01;;;;;;;8.57;7.57;;;;;;;;;;5060742;28;20105;-76
2021/08/26 12:40:28;;;;;;;8.82;6.80;;;;;;;;;;5077366;28;20052;-77
2021/08/26 12:42:58;;;;;;;16.80;7.00;;;;;;;;;;5076718;28;20044;-76
2021/08/26 12:45:25;;;;;;;24.80;11.18;;;;;;;;;;5077097;28;20035;-77
2021/08/26 12:47:51;;;;;;;31.55;11.35;;;;;;;;;;5076662;28;20025;-76
2021/08/26 12:50:32;;;;;;;36.17;14.10;;;;;;;;;;5076652;28;20375;-80
2021/08/26 12:52:59;;;;;;;24.75;12.70;;;;;;;;;;5077393;28;20050;-79
2021/08/26 12:55:25;;;;;;;17.98;9.93;;;;;;;;;;5078726;28;20024;-79
2021/08/26 12:58:09;;;;;;;17.58;10.40;;;;;;;;;;5093998;28;20028;-76
2021/08/26 13:00:36;;;;;;;22.38;9.02;;;;;;;;;;5096619;28;20020;-77
2021/08/26 13:03:02;;;;;;;19.63;9.50;;;;;;;;;;5099152;28;20043;-78
2021/08/26 13:05:28;;;;;;;18.70;8.73;;;;;;;;;;5097752;28;20476;-79
2021/08/26 13:07:58;;;;;;;24.17;9.73;;;;;;;;;;5098552;28;20027;-79
2021/08/26 13:10:25;;;;;;;20.85;10.93;;;;;;;;;;5099928;28;20029;-83
2021/08/26 13:13:10;;;;;;;14.07;8.13;;;;;;;;;;5096664;28;20035;-76
2021/08/26 13:15:37;;;;;;;25.50;8.00;;;;;;;;;;5084278;28;20079;-85
2021/08/26 13:18:03;;;;;;;15.48;8.15;;;;;;;;;;5100472;28;20020;-82
2021/08/26 13:20:30;;;;;;;15.90;8.93;;;;;;;;;;5100359;28;20028;-82
2021/08/26 13:22:56;;;;;;;21.83;9.02;;;;;;;;;;5100446;28;20042;-79
2021/08/26 13:25:22;;;;;;;11.68;7.25;;;;;;;;;;5099867;28;20024;-81
2021/08/26 13:27:48;;;;;;;13.23;8.05;;;;;;;;;;5099607;28;20020;-79
2021/08/26 13:30:32;;;;;;;12.27;7.97;;;;;;;;;;5099888;28;20350;-81
2021/08/26 13:33:09;;;;;;;14.23;8.15;;;;;;;;;;5099846;28;20030;-80
2021/08/26 13:35:35;;;;;;;34.20;7.88;;;;;;;;;;5099150;28;20465;-78
2021/08/26 13:38:01;;;;;;;16.75;9.18;;;;;;;;;;5099098;28;20032;-74
2021/08/26 13:40:27;;;;;;;10.60;8.07;;;;;;;;;;5096595;28;20023;-74
2021/08/26 13:42:53;;;;;;;17.13;8.88;;;;;;;;;;5097283;28;20123;-72
2021/08/26 13:45:19;;;;;;;14.68;8.65;;;;;;;;;;5098310;28;20449;-83
2021/08/26 13:48:10;;;;;;;9.07;6.97;;;;;;;;;;5101023;28;20119;-76
2021/08/26 13:50:41;;;;;;;7.20;5.90;;;;;;;;;;5104636;28;20500;-77
2021/08/26 13:53:07;;;;;;;10.50;7.20;;;;;;;;;;5090653;28;20038;-78
2021/08/26 13:55:33;;;;;;;14.13;6.82;;;;;;;;;;5079127;28;20500;-78
2021/08/26 13:58:00;;;;;;;14.13;7.00;;;;;;;;;;5079538;28;20078;-75
2021/08/26 14:00:41;;;;;;;8.25;6.32;;;;;;;;;;5090444;28;20027;-75
2021/08/26 14:03:10;;;;;;;12.93;6.60;;;;;;;;;;5079935;28;20710;-77
2021/08/26 14:05:41;;;;;;;9.70;7.05;;;;;;;;;;5079447;28;20080;-78
2021/08/26 14:08:07;;;;;;;10.18;6.78;;;;;;;;;;5076228;28;20055;-77
2021/08/26 14:10:33;;;;;;;15.85;7.28;;;;;;;;;;5084995;28;20028;-77
2021/08/26 14:12:59;;;;;;;8.80;5.25;;;;;;;;;;5080221;28;20032;-77
2021/08/26 14:15:26;;;;;;;13.38;6.93;;;;;;;;;;5076371;28;20048;-76
2021/08/26 14:17:52;;;;;;;10.40;7.20;;;;;;;;;;5075651;28;20057;-77
2021/08/26 14:20:18;;;;;;;7.97;6.30;;;;;;;;;;5085150;28;20027;-79
2021/08/26 14:22:44;;;;;;;11.18;7.30;;;;;;;;;;5097214;28;20027;-75
2021/08/26 14:25:10;;;;;;;15.70;7.22;;;;;;;;;;5094045;28;20032;-77
2021/08/26 14:27:36;;;;;;;7.70;5.85;;;;;;;;;;5094468;28;20035;-77